Stewarts Point, Nevada
Current Conditions -  °F | °C
As of 12:58 PM on Thursday 23 Oct 2014 (Local Time) from KLSV Reporting Station
Clear Clear  
Wind Chill: 82°   Ceiling: Unl
Heat Index: 82°   Visibility: 10mi
Dew Point: 34°   Wind: 7mph
Humidity: 18%   Direction: 110°ESE
Pressure: 30.03"   Gusts: NA
Location:  36.5809°N, 114.605°W
Report Text: KLSV 231958Z AUTO 11006KT 10SM CLR 28/01 A3003 RMK AO2 SLP152 T02780013 $
Loading
Personal Weather Stations






























Interactive Weather Map
Tropical Storm Tracking
New forecast layout! Learn more

10-Day Weather Forecast

Advertisements
Track Severe Weather on mobile